createdAt,value
2018-05-15T00:00:34.186Z,94827.53
2018-05-15T00:03:02.450Z,94823.61
2018-05-15T00:05:30.754Z,94823.38
2018-05-15T00:07:58.994Z,94825.09
2018-05-15T00:10:28.011Z,94818.09
2018-05-15T00:12:56.254Z,94822.86
2018-05-15T00:15:24.495Z,94816.72
2018-05-15T00:17:52.729Z,94818.15
2018-05-15T00:20:21.725Z,94822.40
2018-05-15T00:22:49.979Z,94819.88
2018-05-15T00:25:18.981Z,94818.16
2018-05-15T00:27:48.394Z,94816.32
2018-05-15T00:30:16.651Z,94819.63
2018-05-15T00:32:44.894Z,94822.52
2018-05-15T00:35:13.143Z,94818.53
2018-05-15T00:37:41.374Z,94826.85
2018-05-15T00:40:09.622Z,94825.87
2018-05-15T00:42:37.857Z,94830.15
2018-05-15T00:45:06.105Z,94825.73
2018-05-15T00:47:34.351Z,94828.39
2018-05-15T00:50:02.631Z,94826.10
2018-05-15T00:52:31.158Z,94820.48
2018-05-15T00:55:18.045Z,94819.82
2018-05-15T00:57:46.338Z,94824.70
2018-05-15T01:00:15.333Z,94820.19
2018-05-15T01:02:44.341Z,94818.47
2018-05-15T01:05:12.594Z,94825.90
2018-05-15T01:07:41.591Z,94825.27
2018-05-15T01:10:10.604Z,94815.89
2018-05-15T01:12:38.846Z,94815.77
2018-05-15T01:15:07.851Z,94815.34
2018-05-15T01:17:37.168Z,94814.01
2018-05-15T01:20:05.393Z,94808.45
2018-05-15T01:22:33.646Z,94811.20
2018-05-15T01:25:01.887Z,94819.02
2018-05-15T01:27:30.919Z,94820.47
2018-05-15T01:29:59.261Z,94821.52
2018-05-15T01:32:27.503Z,94819.23
2018-05-15T01:34:55.743Z,94824.34
2018-05-15T01:37:23.989Z,94815.88
2018-05-15T01:39:52.235Z,94821.47
2018-05-15T01:42:20.477Z,94820.53
2018-05-15T01:44:48.713Z,94816.70
2018-05-15T01:47:16.951Z,94825.27
2018-05-15T01:49:45.219Z,94826.89
2018-05-15T01:52:13.426Z,94830.80
2018-05-15T01:54:42.661Z,94828.03
2018-05-15T01:57:10.890Z,94836.03
2018-05-15T01:59:39.898Z,94833.83
2018-05-15T02:02:08.906Z,94838.89
2018-05-15T02:04:37.149Z,94844.95
2018-05-15T02:07:05.391Z,94838.13
2018-05-15T02:09:33.626Z,94844.30
2018-05-15T02:12:01.878Z,94845.82
2018-05-15T02:14:30.486Z,94847.27
2018-05-15T02:16:58.717Z,94843.34
2018-05-15T02:19:26.956Z,94843.35
2018-05-15T02:21:55.210Z,94838.16
2018-05-15T02:24:23.511Z,94840.75
2018-05-15T02:26:51.758Z,94842.59
2018-05-15T02:29:20.766Z,94841.11
2018-05-15T02:31:49.030Z,94841.42
2018-05-15T02:34:18.027Z,94841.86
2018-05-15T02:36:46.271Z,94846.56
2018-05-15T02:39:14.506Z,94848.27
2018-05-15T02:41:42.761Z,94853.36
2018-05-15T02:44:10.990Z,94857.01
2018-05-15T02:46:39.222Z,94854.02
2018-05-15T02:49:07.486Z,94846.77
2018-05-15T02:51:35.731Z,94856.08
2018-05-15T02:54:04.754Z,94852.87
2018-05-15T02:56:32.993Z,94850.83
2018-05-15T02:59:01.218Z,94852.76
2018-05-15T03:01:29.891Z,94859.55
2018-05-15T03:03:58.130Z,94859.16
2018-05-15T03:06:26.403Z,94857.81
2018-05-15T03:08:54.653Z,94858.81
2018-05-15T03:11:22.890Z,94851.38
2018-05-15T03:13:51.151Z,94858.63
2018-05-15T03:16:20.179Z,94854.55
2018-05-15T03:18:48.405Z,94861.68
2018-05-15T03:21:17.417Z,94866.23
2018-05-15T03:23:45.659Z,94866.38
2018-05-15T03:26:13.899Z,94872.71
2018-05-15T03:28:42.150Z,94877.59
2018-05-15T03:31:10.387Z,94874.33
2018-05-15T03:33:38.964Z,94878.02
2018-05-15T03:36:07.197Z,94878.30
2018-05-15T03:38:35.431Z,94880.39
2018-05-15T03:41:03.727Z,94889.81
2018-05-15T03:43:32.735Z,94883.59
2018-05-15T03:46:00.981Z,94896.36
2018-05-15T03:48:29.985Z,94895.63
2018-05-15T03:50:58.993Z,94899.69
2018-05-15T03:53:27.457Z,94896.59
2018-05-15T03:55:56.461Z,94898.42
2018-05-15T03:58:25.458Z,94900.80
2018-05-15T04:01:11.496Z,94909.44
2018-05-15T04:03:57.486Z,94902.55
2018-05-15T04:06:43.642Z,94907.17
2018-05-15T04:09:11.899Z,94916.25
2018-05-15T04:11:40.902Z,94917.27
2018-05-15T04:14:09.138Z,94923.75
2018-05-15T04:16:37.554Z,94921.40
2018-05-15T04:19:06.550Z,94923.07
2018-05-15T04:21:34.792Z,94922.77
2018-05-15T04:24:03.049Z,94919.41
2018-05-15T04:26:31.378Z,94919.17
2018-05-15T04:28:59.629Z,94929.80
2018-05-15T04:31:27.854Z,94930.55
2018-05-15T04:33:56.087Z,94920.62
2018-05-15T04:36:25.102Z,94924.62
2018-05-15T04:38:53.338Z,94931.61
2018-05-15T04:41:21.572Z,94939.41
2018-05-15T04:43:50.071Z,94944.81
2018-05-15T04:46:18.815Z,94950.33
2018-05-15T04:48:47.051Z,94949.13
2018-05-15T04:51:15.297Z,94945.95
2018-05-15T04:53:43.526Z,94950.95
2018-05-15T04:56:12.739Z,94946.47
2018-05-15T04:58:41.737Z,94949.56
2018-05-15T05:01:09.982Z,94950.52
2018-05-15T05:03:38.999Z,94951.30
2018-05-15T05:06:07.233Z,94957.14
2018-05-15T05:08:35.467Z,94958.23
2018-05-15T05:11:03.714Z,94958.38
2018-05-15T05:13:32.727Z,94956.01
2018-05-15T05:16:00.974Z,94951.73
2018-05-15T05:18:30.012Z,94950.02
2018-05-15T05:20:58.332Z,94954.30
2018-05-15T05:23:27.253Z,94957.92
2018-05-15T05:25:56.262Z,94956.62
2018-05-15T05:28:24.510Z,94961.89
2018-05-15T05:30:53.576Z,94965.22
2018-05-15T05:33:21.952Z,94962.84
2018-05-15T05:35:50.134Z,94969.00
2018-05-15T05:38:18.390Z,94970.03
2018-05-15T05:40:46.631Z,94975.70
2018-05-15T05:43:14.871Z,94973.52
2018-05-15T05:45:43.114Z,94972.89
2018-05-15T05:48:11.355Z,94980.30
2018-05-15T05:50:39.586Z,94981.25
2018-05-15T05:53:08.718Z,94980.69
2018-05-15T05:55:37.714Z,94988.31
2018-05-15T05:58:05.950Z,94986.36
2018-05-15T06:00:34.194Z,94994.27
2018-05-15T06:03:02.696Z,94990.40
2018-05-15T06:05:30.893Z,94984.63
2018-05-15T06:07:59.129Z,94993.53
2018-05-15T06:10:27.374Z,94997.84
2018-05-15T06:12:55.755Z,95005.00
2018-05-15T06:15:24.755Z,95000.37
2018-05-15T06:17:52.990Z,95006.87
2018-05-15T06:20:21.240Z,95011.84
2018-05-15T06:22:49.774Z,95011.52
2018-05-15T06:25:18.079Z,95015.14
2018-05-15T06:27:46.355Z,95014.55
2018-05-15T06:30:14.590Z,95016.26
2018-05-15T06:32:43.619Z,95027.22
2018-05-15T06:35:11.854Z,95028.34
2018-05-15T06:37:40.861Z,95031.77
2018-05-15T06:40:09.876Z,95030.54
2018-05-15T06:42:38.109Z,95029.86
2018-05-15T06:45:06.354Z,95038.53
2018-05-15T06:47:34.594Z,95029.05
2018-05-15T06:50:02.839Z,95029.55
2018-05-15T06:52:31.467Z,95042.17
2018-05-15T06:54:59.697Z,95031.66
2018-05-15T06:57:28.713Z,95034.13
2018-05-15T06:59:57.743Z,95037.53
2018-05-15T07:02:25.983Z,95036.12
2018-05-15T07:04:54.237Z,95031.80
2018-05-15T07:07:23.249Z,95034.13
2018-05-15T07:09:52.454Z,95033.14
2018-05-15T07:12:20.695Z,95036.16
2018-05-15T07:14:48.928Z,95039.21
2018-05-15T07:17:17.495Z,95044.70
2018-05-15T07:19:45.738Z,95043.39
2018-05-15T07:22:14.742Z,95041.23
2018-05-15T07:24:43.763Z,95034.89
2018-05-15T07:27:12.006Z,95043.21
2018-05-15T07:29:40.997Z,95042.55
2018-05-15T07:32:10.041Z,95047.96
2018-05-15T07:34:38.282Z,95052.91
2018-05-15T07:37:07.295Z,95049.08
2018-05-15T07:39:35.529Z,95052.66
2018-05-15T07:42:03.773Z,95056.28
2018-05-15T07:44:32.012Z,95055.06
2018-05-15T07:47:00.582Z,95053.44
2018-05-15T07:49:28.822Z,95056.59
2018-05-15T07:51:57.098Z,95054.06
2018-05-15T07:54:25.350Z,95056.75
2018-05-15T07:56:53.591Z,95054.85
2018-05-15T07:59:21.888Z,95059.67
2018-05-15T08:01:50.126Z,95058.52
2018-05-15T08:04:19.237Z,95054.86
2018-05-15T08:06:48.228Z,95057.27
2018-05-15T08:09:16.471Z,95059.73
2018-05-15T08:11:44.709Z,95056.61
2018-05-15T08:14:12.954Z,95059.70
2018-05-15T08:16:41.223Z,95063.19
2018-05-15T08:19:10.223Z,95067.70
2018-05-15T08:21:38.455Z,95067.86
2018-05-15T08:24:06.715Z,95075.55
2018-05-15T08:26:34.958Z,95069.13
2018-05-15T08:29:03.193Z,95064.30
2018-05-15T08:31:31.446Z,95057.71
2018-05-15T08:33:59.685Z,95063.75
2018-05-15T08:36:27.919Z,95073.23
2018-05-15T08:38:56.171Z,95069.94
2018-05-15T08:41:24.410Z,95073.77
2018-05-15T08:43:52.642Z,95071.66
2018-05-15T08:46:20.891Z,95072.86
2018-05-15T08:48:49.127Z,95069.48
2018-05-15T08:51:17.377Z,95067.78
2018-05-15T08:53:45.615Z,95070.65
2018-05-15T08:56:13.845Z,95071.68
2018-05-15T08:58:42.099Z,95066.06
2018-05-15T09:01:10.343Z,95073.84
2018-05-15T09:03:38.574Z,95072.20
2018-05-15T09:06:06.837Z,95077.37
2018-05-15T09:08:35.833Z,95077.76
2018-05-15T09:11:04.838Z,95072.90
2018-05-15T09:13:33.851Z,95077.22
2018-05-15T09:16:02.096Z,95077.42
2018-05-15T09:18:31.102Z,95075.81
2018-05-15T09:20:59.359Z,95081.61
2018-05-15T09:23:27.595Z,95071.39
2018-05-15T09:25:55.830Z,95072.33
2018-05-15T09:28:24.091Z,95076.45
2018-05-15T09:30:53.098Z,95079.07
2018-05-15T09:33:21.334Z,95080.30
2018-05-15T09:35:49.587Z,95077.69
2018-05-15T09:38:17.825Z,95078.78
2018-05-15T09:40:46.054Z,95081.11
2018-05-15T09:43:34.014Z,95076.82
2018-05-15T09:46:02.251Z,95074.47
2018-05-15T09:48:30.514Z,95070.72
2018-05-15T09:50:58.759Z,95080.43
2018-05-15T09:53:27.753Z,95078.08
2018-05-15T09:55:55.984Z,95068.86
2018-05-15T09:58:24.231Z,95067.02
2018-05-15T10:00:52.466Z,95056.33
2018-05-15T10:03:21.487Z,95052.49
2018-05-15T10:05:49.739Z,95061.79
2018-05-15T10:08:18.746Z,95065.48
2018-05-15T10:10:46.977Z,95074.16
2018-05-15T10:13:15.234Z,95087.66
2018-05-15T10:15:43.486Z,95108.28
2018-05-15T10:18:11.725Z,95121.02
2018-05-15T10:20:39.975Z,95123.09
2018-05-15T10:23:08.234Z,95130.87
2018-05-15T10:25:36.477Z,95131.77
2018-05-15T10:28:05.487Z,95134.88
2018-05-15T10:30:33.717Z,95137.78
2018-05-15T10:33:02.734Z,95136.59
2018-05-15T10:35:31.310Z,95126.86
2018-05-15T10:38:00.322Z,95128.49
2018-05-15T10:40:28.556Z,95114.27
2018-05-15T10:42:56.969Z,95115.68
2018-05-15T10:45:25.210Z,95107.20
2018-05-15T10:47:53.448Z,95103.31
2018-05-15T10:50:21.690Z,95095.34
2018-05-15T10:52:49.933Z,95098.91
2018-05-15T10:55:18.189Z,95093.06
2018-05-15T10:57:46.427Z,95088.48
2018-05-15T11:00:14.690Z,95087.30
2018-05-15T11:02:43.693Z,95084.58
2018-05-15T11:05:11.929Z,95087.36
2018-05-15T11:07:40.179Z,95097.05
2018-05-15T11:10:08.422Z,95101.87
2018-05-15T11:12:36.771Z,95103.00
2018-05-15T11:15:04.931Z,95098.91
2018-05-15T11:17:33.182Z,95095.78
2018-05-15T11:20:19.008Z,95094.74
2018-05-15T11:23:06.242Z,95083.97
2018-05-15T11:25:35.246Z,95084.70
2018-05-15T11:28:03.495Z,95085.37
2018-05-15T11:30:32.614Z,95080.95
2018-05-15T11:33:00.752Z,95079.30
2018-05-15T11:35:28.996Z,95073.05
2018-05-15T11:37:57.251Z,95074.61
2018-05-15T11:40:25.489Z,95078.39
2018-05-15T11:42:54.502Z,95081.10
2018-05-15T11:45:22.894Z,95074.29
2018-05-15T11:47:51.465Z,95071.58
2018-05-15T11:50:20.928Z,95075.64
2018-05-15T11:52:48.894Z,95076.63
2018-05-15T11:55:17.418Z,95072.34
2018-05-15T11:57:45.675Z,95076.89
2018-05-15T12:00:14.759Z,95075.43
2018-05-15T12:02:42.979Z,95074.08
2018-05-15T12:05:11.199Z,95069.96
2018-05-15T12:07:39.443Z,95071.14
2018-05-15T12:10:07.706Z,95066.31
2018-05-15T12:12:35.954Z,95065.02
2018-05-15T12:15:05.009Z,95063.43
2018-05-15T12:17:33.215Z,95058.28
2018-05-15T12:20:02.237Z,95058.72
2018-05-15T12:22:30.706Z,95064.89
2018-05-15T12:24:59.709Z,95068.41
2018-05-15T12:27:27.953Z,95087.83
2018-05-15T12:29:56.552Z,95084.92
2018-05-15T12:32:24.706Z,95087.17
2018-05-15T12:34:52.946Z,95083.20
2018-05-15T12:37:21.203Z,95089.64
2018-05-15T12:39:49.445Z,95103.02
2018-05-15T12:42:19.968Z,95114.87
2018-05-15T12:44:48.207Z,95113.76
2018-05-15T12:47:16.467Z,95134.50
2018-05-15T12:49:44.706Z,95137.20
2018-05-15T12:52:13.758Z,95140.95
2018-05-15T12:54:41.997Z,95136.84
2018-05-15T12:57:10.234Z,95132.16
2018-05-15T12:59:38.490Z,95136.70
2018-05-15T13:02:06.742Z,95129.92
2018-05-15T13:04:34.979Z,95125.44
2018-05-15T13:07:03.997Z,95136.16
2018-05-15T13:09:32.247Z,95135.89
2018-05-15T13:12:01.273Z,95134.72
2018-05-15T13:14:29.521Z,95123.28
2018-05-15T13:16:57.774Z,95122.07
2018-05-15T13:19:26.010Z,95118.03
2018-05-15T13:21:54.272Z,95110.05
2018-05-15T13:24:22.599Z,95105.65
2018-05-15T13:26:51.522Z,95102.00
2018-05-15T13:29:19.786Z,95102.77
2018-05-15T13:31:48.787Z,95096.41
2018-05-15T13:34:17.797Z,95095.75
2018-05-15T13:36:46.388Z,95088.55
2018-05-15T13:39:14.618Z,95090.67
2018-05-15T13:41:42.859Z,95094.91
2018-05-15T13:44:11.142Z,95091.59
2018-05-15T13:46:39.378Z,95092.02
2018-05-15T13:49:07.622Z,95091.19
2018-05-15T13:51:35.868Z,95093.23
2018-05-15T13:54:04.101Z,95093.86
2018-05-15T13:56:32.575Z,95081.27
2018-05-15T13:59:00.809Z,95084.16
2018-05-15T14:01:29.042Z,95079.77
2018-05-15T14:03:57.289Z,95082.25
2018-05-15T14:06:26.303Z,95078.90
2018-05-15T14:08:54.670Z,95086.84
2018-05-15T14:11:22.919Z,95082.13
2018-05-15T14:13:51.145Z,95080.61
2018-05-15T14:16:19.401Z,95088.19
2018-05-15T14:18:47.657Z,95074.34
2018-05-15T14:21:16.691Z,95078.02
2018-05-15T14:23:44.933Z,95076.94
2018-05-15T14:26:13.951Z,95076.98
2018-05-15T14:28:42.187Z,95071.89
2018-05-15T14:31:10.442Z,95068.39
2018-05-15T14:33:38.686Z,95074.34
2018-05-15T14:36:06.931Z,95072.04
2018-05-15T14:38:35.942Z,95068.58
2018-05-15T14:41:04.169Z,95071.50
2018-05-15T14:43:33.422Z,95072.89
2018-05-15T14:46:01.686Z,95067.89
2018-05-15T14:48:30.682Z,95065.52
2018-05-15T14:51:28.702Z,95066.30
2018-05-15T14:53:56.943Z,95064.13
2018-05-15T14:56:25.187Z,95069.11
2018-05-15T14:58:54.290Z,95064.56
2018-05-15T15:01:23.295Z,95065.86
2018-05-15T15:03:51.530Z,95066.75
2018-05-15T15:06:19.782Z,95057.95
2018-05-15T15:08:48.042Z,95064.53
2018-05-15T15:11:16.275Z,95049.76
2018-05-15T15:13:45.282Z,95054.45
2018-05-15T15:16:13.529Z,95047.80
2018-05-15T15:18:41.829Z,95049.99
2018-05-15T15:21:10.848Z,95048.55
2018-05-15T15:23:39.171Z,95036.64
2018-05-15T15:26:08.098Z,95043.97
2018-05-15T15:28:37.112Z,95043.12
2018-05-15T15:31:05.352Z,95041.73
2018-05-15T15:33:34.354Z,95045.28
2018-05-15T15:36:03.359Z,95040.47
2018-05-15T15:38:31.628Z,95045.15
2018-05-15T15:40:59.870Z,95035.66
2018-05-15T15:43:28.114Z,95034.22
2018-05-15T15:45:56.480Z,95032.47
2018-05-15T15:48:24.725Z,95036.30
2018-05-15T15:50:53.750Z,95037.16
2018-05-15T15:53:21.978Z,95043.26
2018-05-15T15:55:50.222Z,95052.73
2018-05-15T15:58:18.477Z,95043.08
2018-05-15T16:00:46.717Z,95038.95
2018-05-15T16:03:15.717Z,95043.05
2018-05-15T16:05:44.259Z,95041.25
2018-05-15T16:08:12.489Z,95045.36
2018-05-15T16:10:40.750Z,95044.16
2018-05-15T16:13:09.006Z,95046.77
2018-05-15T16:15:38.076Z,95043.44
2018-05-15T16:18:07.019Z,95048.60
2018-05-15T16:20:35.274Z,95046.59
2018-05-15T16:23:04.278Z,95044.16
2018-05-15T16:25:33.282Z,95043.84
2018-05-15T16:28:01.575Z,95040.06
2018-05-15T16:30:29.818Z,95042.00
2018-05-15T16:32:58.821Z,95046.05
2018-05-15T16:35:27.834Z,95055.08
2018-05-15T16:37:56.079Z,95051.25
2018-05-15T16:40:25.090Z,95046.30
2018-05-15T16:42:53.337Z,95053.67
2018-05-15T16:45:22.338Z,95052.14
2018-05-15T16:47:51.353Z,95054.74
2018-05-15T16:50:19.589Z,95055.76
2018-05-15T16:52:49.336Z,95054.86
2018-05-15T16:55:17.594Z,95060.35
2018-05-15T16:57:46.599Z,95055.37
2018-05-15T17:00:14.837Z,95059.28
2018-05-15T17:02:43.078Z,95061.67
2018-05-15T17:05:11.331Z,95065.05
2018-05-15T17:07:39.578Z,95058.98
2018-05-15T17:10:08.077Z,95062.31
2018-05-15T17:12:37.074Z,95061.98
2018-05-15T17:15:05.325Z,95062.94
2018-05-15T17:17:33.566Z,95063.48
2018-05-15T17:20:01.797Z,95068.59
2018-05-15T17:22:30.387Z,95076.01
2018-05-15T17:24:58.622Z,95080.79
2018-05-15T17:27:26.861Z,95086.22
2018-05-15T17:29:55.205Z,95117.20
2018-05-15T17:32:24.302Z,95146.52
2018-05-15T17:34:53.317Z,95142.77
2018-05-15T17:37:21.567Z,95148.27
2018-05-15T17:39:50.569Z,95139.22
2018-05-15T17:42:18.819Z,95145.58
2018-05-15T17:44:47.058Z,95140.73
2018-05-15T17:47:15.709Z,95151.08
2018-05-15T17:49:43.957Z,95155.00
2018-05-15T17:52:13.055Z,95164.98
2018-05-15T17:54:42.114Z,95173.86
2018-05-15T17:57:10.349Z,95184.64
2018-05-15T17:59:38.587Z,95181.26
2018-05-15T18:02:06.839Z,95172.19
2018-05-15T18:04:35.082Z,95173.02
2018-05-15T18:07:03.654Z,95160.25
2018-05-15T18:09:31.897Z,95161.52
2018-05-15T18:12:00.138Z,95168.04
2018-05-15T18:14:28.405Z,95178.41
2018-05-15T18:16:56.635Z,95184.84
2018-05-15T18:19:24.867Z,95193.78
2018-05-15T18:21:54.077Z,95207.05
2018-05-15T18:24:23.319Z,95205.50
2018-05-15T18:26:52.334Z,95203.83
2018-05-15T18:29:21.414Z,95209.72
2018-05-15T18:31:50.432Z,95199.28
2018-05-15T18:34:18.674Z,95194.09
2018-05-15T18:36:46.957Z,95165.52
2018-05-15T18:39:15.954Z,95150.22
2018-05-15T18:41:44.202Z,95153.66
2018-05-15T18:44:12.450Z,95159.66
2018-05-15T18:46:40.698Z,95158.48
2018-05-15T18:49:08.943Z,95157.81
2018-05-15T18:51:37.958Z,95157.68
2018-05-15T18:54:06.191Z,95156.05
2018-05-15T18:56:34.434Z,95154.59
2018-05-15T18:59:02.678Z,95154.59
2018-05-15T19:01:30.924Z,95161.99
2018-05-15T19:03:59.172Z,95163.92
2018-05-15T19:06:27.402Z,95159.43
2018-05-15T19:08:55.637Z,95167.83
2018-05-15T19:11:23.895Z,95176.48
2018-05-15T19:13:52.154Z,95172.30
2018-05-15T19:16:20.374Z,95175.38
2018-05-15T19:18:48.619Z,95178.05
2018-05-15T19:21:16.858Z,95177.98
2018-05-15T19:23:45.102Z,95180.05
2018-05-15T19:26:13.362Z,95178.40
2018-05-15T19:28:41.682Z,95183.05
2018-05-15T19:31:16.732Z,95177.45
2018-05-15T19:33:50.471Z,95174.26
2018-05-15T19:36:18.715Z,95180.16
2018-05-15T19:38:46.959Z,95177.66
2018-05-15T19:41:19.655Z,95187.10
2018-05-15T19:43:49.050Z,95184.19
2018-05-15T19:46:18.059Z,95187.41
2018-05-15T19:48:46.290Z,95191.94
2018-05-15T19:51:14.550Z,95194.67
2018-05-15T19:53:42.798Z,95200.01
2018-05-15T19:56:11.051Z,95198.15
2018-05-15T19:58:39.293Z,95200.98
2018-05-15T20:01:09.259Z,95210.08
2018-05-15T20:03:37.498Z,95213.56
2018-05-15T20:06:06.621Z,95212.92
2018-05-15T20:08:34.887Z,95219.05
2018-05-15T20:11:03.891Z,95206.19
2018-05-15T20:13:32.134Z,95208.63
2018-05-15T20:16:00.382Z,95206.23
2018-05-15T20:18:28.687Z,95208.25
2018-05-15T20:20:56.928Z,95212.67
2018-05-15T20:23:25.335Z,95210.94
2018-05-15T20:25:53.562Z,95211.75
2018-05-15T20:28:21.992Z,95206.64
2018-05-15T20:30:51.030Z,95211.22
2018-05-15T20:33:19.272Z,95200.99
2018-05-15T20:35:47.499Z,95207.45
2018-05-15T20:38:15.842Z,95208.41
2018-05-15T20:40:44.090Z,95200.66
2018-05-15T20:43:12.337Z,95204.92
2018-05-15T20:45:40.610Z,95207.08
2018-05-15T20:48:08.842Z,95202.41
2018-05-15T20:50:37.083Z,95210.97
2018-05-15T20:53:05.326Z,95208.41
2018-05-15T20:55:33.558Z,95207.91
2018-05-15T20:58:02.587Z,95207.91
2018-05-15T21:00:30.949Z,95213.14
2018-05-15T21:02:59.154Z,95209.78
2018-05-15T21:05:27.397Z,95211.65
2018-05-15T21:07:55.626Z,95216.88
2018-05-15T21:10:23.870Z,95210.56
2018-05-15T21:12:52.105Z,95213.14
2018-05-15T21:15:21.110Z,95214.89
2018-05-15T21:17:50.118Z,95213.80
2018-05-15T21:20:18.367Z,95214.61
2018-05-15T21:22:47.387Z,95213.67
2018-05-15T21:25:15.622Z,95207.51
2018-05-15T21:27:43.945Z,95212.86
2018-05-15T21:30:12.175Z,95211.12
2018-05-15T21:32:40.677Z,95212.86
2018-05-15T21:35:09.677Z,95210.44
2018-05-15T21:37:37.918Z,95203.37
2018-05-15T21:40:06.226Z,95200.53
2018-05-15T21:42:35.236Z,95205.52
2018-05-15T21:45:03.479Z,95205.77
2018-05-15T21:47:32.794Z,95199.87
2018-05-15T21:50:01.039Z,95202.41
2018-05-15T21:52:29.370Z,95206.17
2018-05-15T21:54:57.928Z,95211.52
2018-05-15T21:57:26.940Z,95217.16
2018-05-15T21:59:55.182Z,95225.19
2018-05-15T22:02:24.500Z,95220.92
2018-05-15T22:04:52.744Z,95226.94
2018-05-15T22:07:20.988Z,95228.93
2018-05-15T22:09:49.242Z,95229.59
2018-05-15T22:12:35.207Z,95227.31
2018-05-15T22:15:22.129Z,95220.11
2018-05-15T22:18:08.249Z,95229.33
2018-05-15T22:20:54.481Z,95228.55
2018-05-15T22:23:21.933Z,95230.70
2018-05-15T22:25:50.666Z,95235.76
2018-05-15T22:28:18.911Z,95228.39
2018-05-15T22:30:47.161Z,95225.31
2018-05-15T22:33:15.598Z,95227.73
2018-05-15T22:35:43.870Z,95226.27
2018-05-15T22:38:12.118Z,95233.38
2018-05-15T22:40:41.133Z,95226.41
2018-05-15T22:43:10.145Z,95230.69
2018-05-15T22:45:38.384Z,95227.47
2018-05-15T22:48:07.393Z,95224.14
2018-05-15T22:50:36.419Z,95227.48
2018-05-15T22:53:04.663Z,95230.43
2018-05-15T22:55:33.687Z,95225.61
2018-05-15T22:58:01.946Z,95220.13
2018-05-15T23:00:30.187Z,95223.20
2018-05-15T23:02:58.446Z,95221.97
2018-05-15T23:05:26.698Z,95226.14
2018-05-15T23:07:54.955Z,95222.11
2018-05-15T23:10:23.242Z,95222.78
2018-05-15T23:12:51.506Z,95223.46
2018-05-15T23:15:20.518Z,95232.56
2018-05-15T23:17:48.759Z,95233.09
2018-05-15T23:20:17.886Z,95222.10
2018-05-15T23:22:46.125Z,95220.66
2018-05-15T23:25:15.130Z,95225.33
2018-05-15T23:27:43.375Z,95212.34
2018-05-15T23:30:11.621Z,95208.89
2018-05-15T23:32:39.954Z,95219.87
2018-05-15T23:35:08.272Z,95219.73
2018-05-15T23:37:36.517Z,95220.39
2018-05-15T23:40:04.762Z,95222.92
2018-05-15T23:42:33.134Z,95223.22
2018-05-15T23:45:02.148Z,95228.55
2018-05-15T23:47:31.156Z,95214.52
2018-05-15T23:49:59.409Z,95223.06
2018-05-15T23:52:28.409Z,95216.66
2018-05-15T23:54:57.433Z,95224.53
2018-05-15T23:57:25.674Z,95218.52
2018-05-15T23:59:54.691Z,95217.84
